Terminal Aerodrome Forecast
Issued by NWS Grand Forks, ND

Home | Current Version | Previous Version | Text Only | Print | Product List | Glossary On
Versions: 1 2 3 4 5 6 7 8 9 10 11 12 13 14
000
FTUS43 KFGF 251720
TAFFAR
TAF
KFAR 251720Z 2518/2618 03008KT P6SM -RA OVC080
     FM252300 02007KT P6SM OVC060
     FM260300 26005KT P6SM BKN120
     FM261200 24006KT P6SM BKN250=

USA.gov is the U.S. government's official web portal to all federal, state and local government web resources and services.